Time;durP1;ratioP1;P1;durP2;ratioP2;P2;SDS_P1;SDS_P2;PMS_P1;PMS_P2;Temp;Humidity;BMP_temperature;BMP_pressure;BME280_temperature;BME280_humidity;BME280_pressure;Samples;Min_cycle;Max_cycle;Signal;HPM_P1;HPM_P2
2022/08/20 00:01:57;;;;;;;0.63;0.30;;;;;;;-145.06;100.00;60892.56;4836017;28;20030;-88
2022/08/20 00:04:36;;;;;;;0.57;0.20;;;;;;;-145.06;100.00;60892.56;4836519;28;20492;-88
2022/08/20 00:07:15;;;;;;;0.30;0.30;;;;;;;-145.06;100.00;60892.56;4835615;28;20042;-88
2022/08/20 00:09:55;;;;;;;0.60;0.40;;;;;;;-145.06;100.00;60892.56;4833532;28;20124;-87
2022/08/20 00:12:36;;;;;;;0.38;0.25;;;;;;;-145.06;100.00;60892.56;4834579;28;20124;-87
2022/08/20 00:15:20;;;;;;;0.88;0.30;;;;;;;-145.06;100.00;60892.56;4835093;28;20034;-87
2022/08/20 00:17:59;;;;;;;0.40;0.30;;;;;;;-145.06;100.00;60892.56;4837992;28;20038;-89
2022/08/20 00:20:42;;;;;;;0.45;0.40;;;;;;;-145.06;100.00;60892.56;4831951;28;20022;-90
2022/08/20 00:23:22;;;;;;;0.35;0.30;;;;;;;-145.06;100.00;60892.56;4834393;28;20030;-89
2022/08/20 00:26:00;;;;;;;0.38;0.32;;;;;;;-145.06;100.00;60892.56;4835224;28;20757;-90
2022/08/20 00:28:40;;;;;;;0.30;0.30;;;;;;;-145.06;100.00;60892.56;4830350;28;20037;-89
2022/08/20 00:31:22;;;;;;;0.20;0.20;;;;;;;-145.06;100.00;60892.56;4834983;28;20480;-87
2022/08/20 00:34:01;;;;;;;0.40;0.40;;;;;;;-145.06;100.00;60892.56;4833171;28;20041;-88
2022/08/20 00:36:40;;;;;;;0.60;0.40;;;;;;;-145.06;100.00;60892.56;4834752;28;20069;-87
2022/08/20 00:39:19;;;;;;;0.75;0.30;;;;;;;-145.06;100.00;60892.56;4858840;28;20492;-87
2022/08/20 00:41:58;;;;;;;0.30;0.30;;;;;;;-145.06;100.00;60892.56;4832909;28;20042;-87
2022/08/20 00:44:44;;;;;;;0.20;0.20;;;;;;;-145.06;100.00;60892.56;4837915;28;20508;-88
2022/08/20 00:47:26;;;;;;;1.02;0.32;;;;;;;-145.06;100.00;60892.56;4833556;28;20068;-88
2022/08/20 00:50:06;;;;;;;0.30;0.30;;;;;;;-145.06;100.00;60892.56;4830325;28;20416;-88
2022/08/20 00:52:49;;;;;;;0.57;0.30;;;;;;;-145.06;100.00;60892.56;4827251;28;20469;-87
2022/08/20 00:55:29;;;;;;;0.38;0.28;;;;;;;-145.06;100.00;60892.56;4840870;28;20034;-86
2022/08/20 00:58:09;;;;;;;0.20;0.20;;;;;;;-145.06;100.00;60892.56;4833319;28;20112;-87
2022/08/20 01:00:49;;;;;;;0.50;0.30;;;;;;;-145.06;100.00;60892.56;4837855;28;20029;-87
2022/08/20 01:03:28;;;;;;;;;;;;;;;-145.06;100.00;60892.56;4831844;28;20472;-87
2022/08/20 01:06:10;;;;;;;0.20;0.20;;;;;;;-145.06;100.00;60892.56;4839498;28;20284;-87
2022/08/20 01:08:49;;;;;;;0.22;0.20;;;;;;;-145.06;100.00;60892.56;4829110;28;20113;-87
2022/08/20 01:11:35;;;;;;;0.20;0.20;;;;;;;-145.06;100.00;60892.56;4834182;28;20105;-87
2022/08/20 01:17:16;;;;;;;0.10;0.10;;;;;;;-145.06;100.00;60892.56;4832444;28;20121;-88
2022/08/20 01:20:09;;;;;;;0.28;0.25;;;;;;;-145.06;100.00;60892.56;4832625;28;20037;-88
2022/08/20 01:26:04;;;;;;;0.20;0.20;;;;;;;-145.06;100.00;60892.56;4832923;28;20033;-87
2022/08/20 01:28:48;;;;;;;0.28;0.28;;;;;;;-145.06;100.00;60892.56;4834359;28;20026;-87
2022/08/20 01:31:31;;;;;;;0.20;0.20;;;;;;;-145.06;100.00;60892.56;4834223;28;20033;-87
2022/08/20 01:34:13;;;;;;;0.63;0.20;;;;;;;-145.06;100.00;60892.56;4833376;28;20511;-88
2022/08/20 01:36:56;;;;;;;0.60;0.30;;;;;;;-145.06;100.00;60892.56;4832342;28;20124;-88
2022/08/20 01:39:36;;;;;;;0.20;0.20;;;;;;;-145.06;100.00;60892.56;4828352;28;20038;-88
2022/08/20 01:42:21;;;;;;;0.20;0.20;;;;;;;-145.06;100.00;60892.56;4837229;28;20046;-87
2022/08/20 01:45:00;;;;;;;0.20;0.20;;;;;;;-145.06;100.00;60892.56;4840425;28;20022;-87
2022/08/20 01:47:40;;;;;;;0.20;0.10;;;;;;;-145.06;100.00;60892.56;4827883;28;20041;-88
2022/08/20 01:50:24;;;;;;;0.20;0.20;;;;;;;-145.06;100.00;60892.56;4838870;28;20500;-88
2022/08/20 01:53:19;;;;;;;0.40;0.40;;;;;;;-145.06;100.00;60892.56;4832060;28;20038;-88
2022/08/20 01:56:03;;;;;;;0.22;0.22;;;;;;;-145.06;100.00;60892.56;4831372;28;20029;-87
2022/08/20 01:58:48;;;;;;;0.20;0.20;;;;;;;-145.06;100.00;60892.56;4830934;28;20029;-87
2022/08/20 02:01:36;;;;;;;0.50;0.20;;;;;;;-145.06;100.00;60892.56;4831544;28;20034;-88
2022/08/20 02:04:17;;;;;;;0.20;0.20;;;;;;;-145.06;100.00;60892.56;4833300;28;20425;-89
2022/08/20 02:06:58;;;;;;;0.63;0.40;;;;;;;-145.06;100.00;60892.56;4833906;28;20381;-88
2022/08/20 02:09:38;;;;;;;0.30;0.30;;;;;;;-145.06;100.00;60892.56;4828085;28;20069;-88
2022/08/20 02:12:17;;;;;;;0.60;0.40;;;;;;;-145.06;100.00;60892.56;4833695;28;20058;-87
2022/08/20 02:14:57;;;;;;;0.40;0.30;;;;;;;-145.06;100.00;60892.56;4837512;28;20491;-89
2022/08/20 02:17:37;;;;;;;0.60;0.43;;;;;;;-145.06;100.00;60892.56;4853808;28;20018;-89
2022/08/20 02:20:26;;;;;;;0.68;0.38;;;;;;;-145.06;100.00;60892.56;4845784;28;20456;-87
2022/08/20 02:23:08;;;;;;;0.50;0.50;;;;;;;-145.06;100.00;60892.56;4835827;28;20116;-87
2022/08/20 02:25:47;;;;;;;0.60;0.40;;;;;;;-145.06;100.00;60892.56;4831509;28;20029;-87
2022/08/20 02:28:26;;;;;;;0.60;0.47;;;;;;;-145.06;100.00;60892.56;4833004;28;20037;-89
2022/08/20 02:31:07;;;;;;;1.67;0.63;;;;;;;-145.06;100.00;60892.56;4834494;28;20034;-88
2022/08/20 02:33:47;;;;;;;0.68;0.50;;;;;;;-145.06;100.00;60892.56;4820477;28;20038;-87
2022/08/20 02:36:26;;;;;;;0.60;0.40;;;;;;;-145.06;100.00;60892.56;4833332;28;20061;-88
2022/08/20 02:39:07;;;;;;;0.52;0.50;;;;;;;-145.06;100.00;60892.56;4830594;28;20373;-87
2022/08/20 02:41:48;;;;;;;0.40;0.40;;;;;;;-145.06;100.00;60892.56;4831760;28;20037;-88
2022/08/20 02:44:28;;;;;;;0.45;0.45;;;;;;;-145.06;100.00;60892.56;4831657;28;20034;-87
2022/08/20 02:47:07;;;;;;;0.80;0.60;;;;;;;-145.06;100.00;60892.56;4823640;28;20026;-88
2022/08/20 02:49:46;;;;;;;0.63;0.60;;;;;;;21.40;100.00;60892.56;4828390;28;20037;-88
2022/08/20 02:52:25;;;;;;;0.52;0.50;;;;;;;-145.06;100.00;60892.56;4850964;28;20038;-87
2022/08/20 02:55:04;;;;;;;0.88;0.70;;;;;;;-145.06;100.00;60892.56;4824158;28;20108;-88
2022/08/20 02:57:44;;;;;;;0.73;0.50;;;;;;;-145.06;100.00;60892.56;4828950;28;20033;-87
2022/08/20 03:00:23;;;;;;;0.90;0.55;;;;;;;-145.06;100.00;60892.56;4832186;28;20121;-87
2022/08/20 03:03:02;;;;;;;0.57;0.50;;;;;;;-145.06;100.00;60892.56;4832045;28;20046;-87
2022/08/20 03:05:43;;;;;;;0.45;0.40;;;;;;;-145.06;100.00;60892.56;4834020;28;20277;-87
2022/08/20 03:08:23;;;;;;;0.70;0.50;;;;;;;-145.06;100.00;60892.56;4852093;28;20034;-87
2022/08/20 03:11:02;;;;;;;;;;;;;;;-145.06;100.00;60892.56;4831907;28;20559;-88
2022/08/20 03:13:42;;;;;;;1.50;0.45;;;;;;;-145.06;100.00;60892.56;4840409;28;19913;-87
2022/08/20 03:16:21;;;;;;;0.52;0.40;;;;;;;-145.06;100.00;60892.56;4834486;28;20069;-86
2022/08/20 03:19:00;;;;;;;0.60;0.52;;;;;;;-145.06;100.00;60892.56;4830041;28;20033;-86
2022/08/20 03:21:39;;;;;;;0.75;0.52;;;;;;;-145.06;100.00;60892.56;4830586;28;20038;-86
2022/08/20 03:24:18;;;;;;;0.70;0.50;;;;;;;-145.06;100.00;60892.56;4857991;28;20674;-86
2022/08/20 03:26:57;;;;;;;0.80;0.60;;;;;;;-145.06;100.00;60892.56;4833855;28;20026;-88
2022/08/20 03:29:36;;;;;;;0.80;0.70;;;;;;;-145.06;100.00;60892.56;4831024;28;20473;-86
2022/08/20 03:32:15;;;;;;;0.70;0.70;;;;;;;-145.06;100.00;60892.56;4832329;28;20037;-87
2022/08/20 03:34:55;;;;;;;0.75;0.70;;;;;;;-145.06;100.00;60892.56;4834217;28;20113;-88
2022/08/20 03:37:35;;;;;;;0.80;0.70;;;;;;;-145.06;100.00;60892.56;4830109;28;20643;-88
2022/08/20 03:40:19;;;;;;;1.00;0.90;;;;;;;-145.06;100.00;60892.56;4832504;28;20034;-88
2022/08/20 03:42:58;;;;;;;1.33;1.08;;;;;;;-145.06;100.00;60892.56;4835078;28;20928;-88
2022/08/20 03:45:40;;;;;;;1.17;1.08;;;;;;;-145.06;100.00;60892.56;4838000;28;20652;-88
2022/08/20 03:48:20;;;;;;;1.27;1.00;;;;;;;-145.06;100.00;60892.56;4863701;28;20041;-87
2022/08/20 03:50:59;;;;;;;1.40;1.13;;;;;;;-145.06;100.00;60892.56;4830391;28;20109;-89
2022/08/20 03:53:38;;;;;;;2.70;1.08;;;;;;;-145.06;100.00;60892.56;4835397;28;20593;-88
2022/08/20 03:56:17;;;;;;;1.00;0.90;;;;;;;-145.06;100.00;60892.56;4834202;28;20061;-88
2022/08/20 03:58:56;;;;;;;0.80;0.80;;;;;;;-145.06;100.00;60892.56;4831095;28;20038;-89
2022/08/20 04:01:36;;;;;;;1.20;1.00;;;;;;;-145.06;100.00;60892.56;4832165;28;20029;-88
2022/08/20 04:04:14;;;;;;;3.83;1.50;;;;;;;-145.06;100.00;60892.56;4843557;28;20063;-87
2022/08/20 04:06:54;;;;;;;1.17;1.08;;;;;;;-145.06;100.00;60892.56;4834728;28;20021;-86
2022/08/20 04:09:33;;;;;;;1.30;1.20;;;;;;;-145.06;100.00;60892.56;4833573;28;20061;-87
2022/08/20 04:12:12;;;;;;;1.08;0.95;;;;;;;-145.06;100.00;60892.56;4838262;28;20061;-86
2022/08/20 04:14:51;;;;;;;1.90;1.40;;;;;;;-145.06;100.00;60892.56;4836985;28;20030;-87
2022/08/20 04:17:32;;;;;;;1.67;1.20;;;;;;;-145.06;100.00;60892.56;4835331;28;20029;-89
2022/08/20 04:20:21;;;;;;;2.28;1.70;;;;;;;-145.06;100.00;60892.56;4833348;28;20042;-88
2022/08/20 04:23:00;;;;;;;2.00;1.73;;;;;;;-145.06;100.00;60892.56;4836127;28;20412;-87
2022/08/20 04:25:40;;;;;;;1.98;1.40;;;;;;;-145.06;100.00;60892.56;4833796;28;20030;-87
2022/08/20 04:28:24;;;;;;;1.20;1.10;;;;;;;-145.06;100.00;60892.56;4833282;28;20041;-88
2022/08/20 04:31:04;;;;;;;2.53;1.50;;;;;;;-145.06;100.00;60892.56;4830529;28;20030;-88
2022/08/20 04:33:43;;;;;;;1.77;1.45;;;;;;;20.26;100.00;60892.56;4829074;28;20471;-87
2022/08/20 04:36:23;;;;;;;2.35;1.60;;;;;;;-145.06;100.00;60892.56;4837844;28;20033;-88
2022/08/20 04:39:02;;;;;;;1.80;1.65;;;;;;;-145.06;100.00;60892.56;4837005;28;20030;-87
2022/08/20 04:41:43;;;;;;;1.65;1.40;;;;;;;-145.06;100.00;60892.56;4835408;28;20480;-86
2022/08/20 04:44:22;;;;;;;2.08;1.88;;;;;;;-145.06;100.00;60892.56;4830786;28;20046;-86
2022/08/20 04:47:01;;;;;;;1.38;1.17;;;;;;;-145.06;100.00;60892.56;4841697;28;20303;-88
2022/08/20 04:49:40;;;;;;;1.40;1.30;;;;;;;-145.06;100.00;60892.56;4831673;28;20037;-87
2022/08/20 04:52:19;;;;;;;1.65;1.20;;;;;;;-145.06;100.00;60892.56;4861189;28;20034;-88
2022/08/20 04:54:58;;;;;;;1.25;1.15;;;;;;;-145.06;100.00;60892.56;4856332;28;20369;-87
2022/08/20 04:57:37;;;;;;;1.60;1.20;;;;;;;-145.06;100.00;60892.56;4835605;28;20026;-86
2022/08/20 05:00:16;;;;;;;1.17;1.07;;;;;;;-145.06;100.00;60892.56;4834326;28;20066;-87
2022/08/20 05:02:55;;;;;;;1.27;1.02;;;;;;;-145.06;100.00;60892.56;4845089;28;20022;-87
2022/08/20 05:05:34;;;;;;;1.55;0.98;;;;;;;-145.06;100.00;60892.56;4855985;28;20038;-87
2022/08/20 05:08:14;;;;;;;1.07;0.97;;;;;;;-145.06;100.00;60892.56;4841376;28;20030;-88
2022/08/20 05:10:54;;;;;;;1.95;1.20;;;;;;;-145.06;100.00;60892.56;4834908;28;20269;-87
2022/08/20 05:13:34;;;;;;;1.40;1.27;;;;;;;-145.06;100.00;60892.56;4841641;28;20369;-88
2022/08/20 05:16:16;;;;;;;1.55;1.00;;;;;;;-145.06;100.00;60892.56;4835615;28;20022;-89
2022/08/20 05:18:55;;;;;;;1.33;1.10;;;;;;;-145.06;100.00;60892.56;4834711;28;20041;-86
2022/08/20 05:21:34;;;;;;;1.10;0.98;;;;;;;-145.06;100.00;60892.56;4860537;28;20065;-86
2022/08/20 05:24:15;;;;;;;1.30;0.90;;;;;;;-145.06;100.00;60892.56;4829710;28;20129;-86
2022/08/20 05:26:54;;;;;;;1.38;1.23;;;;;;;-145.06;100.00;60892.56;4834576;28;20389;-86
2022/08/20 05:29:33;;;;;;;1.58;1.08;;;;;;;-145.06;100.00;60892.56;4832775;28;20034;-86
2022/08/20 05:32:12;;;;;;;1.47;1.20;;;;;;;-145.06;100.00;60892.56;4836743;28;20045;-86
2022/08/20 05:34:51;;;;;;;1.20;1.00;;;;;;;-145.06;100.00;60892.56;4834856;28;20409;-88
2022/08/20 05:37:30;;;;;;;1.48;0.95;;;;;;;-145.06;100.00;60892.56;4835985;28;20029;-87
2022/08/20 05:40:13;;;;;;;1.35;0.80;;;;;;;-145.06;100.00;60892.56;4834060;28;20042;-87
2022/08/20 05:42:52;;;;;;;1.50;1.13;;;;;;;-145.06;100.00;60892.56;4831797;28;20479;-87
2022/08/20 05:45:33;;;;;;;1.63;1.30;;;;;;;-145.06;100.00;60892.56;4837461;28;20029;-87
2022/08/20 05:48:16;;;;;;;1.15;0.90;;;;;;;-145.06;100.00;60892.56;4834037;28;20033;-88
2022/08/20 05:50:55;;;;;;;1.48;1.00;;;;;;;-145.06;100.00;60892.56;4831289;28;20065;-87
2022/08/20 05:53:36;;;;;;;1.55;1.10;;;;;;;-145.06;100.00;60892.56;4826691;28;20041;-87
2022/08/20 05:56:15;;;;;;;1.50;0.95;;;;;;;-145.06;100.00;60892.56;4834835;28;20029;-87
2022/08/20 05:58:54;;;;;;;1.38;1.25;;;;;;;-145.06;100.00;60892.56;4833172;28;20065;-87
2022/08/20 06:01:36;;;;;;;1.20;0.98;;;;;;;-145.06;100.00;60892.56;4839460;28;20030;-86
2022/08/20 06:04:25;;;;;;;1.77;1.38;;;;;;;-145.06;100.00;60892.56;4833713;28;20033;-86
2022/08/20 06:07:06;;;;;;;1.45;1.23;;;;;;;-145.06;100.00;60892.56;4829527;28;20550;-86
2022/08/20 06:09:45;;;;;;;1.30;1.20;;;;;;;-145.06;100.00;60892.56;4833584;28;20068;-86
2022/08/20 06:12:24;;;;;;;1.55;1.42;;;;;;;-145.06;100.00;60892.56;4833789;28;20038;-86
2022/08/20 06:15:06;;;;;;;1.67;1.40;;;;;;;-145.06;100.00;60892.56;4828540;28;20030;-87
2022/08/20 06:17:45;;;;;;;1.85;1.67;;;;;;;-145.06;100.00;60892.56;4858059;28;20034;-87
2022/08/20 06:20:27;;;;;;;2.23;1.50;;;;;;;-145.06;100.00;60892.56;4862337;28;20046;-87
2022/08/20 06:23:07;;;;;;;2.08;1.30;;;;;;;-145.06;100.00;60892.56;4837992;28;20273;-87
2022/08/20 06:25:48;;;;;;;1.58;1.45;;;;;;;-145.06;100.00;60892.56;4834837;28;20030;-86
2022/08/20 06:28:27;;;;;;;1.73;1.50;;;;;;;-145.06;100.00;60892.56;4833439;28;20033;-85
2022/08/20 06:31:06;;;;;;;1.55;1.45;;;;;;;-145.06;100.00;60892.56;4832515;28;20029;-86
2022/08/20 06:33:45;;;;;;;2.57;1.37;;;;;;;-145.06;100.00;60892.56;4838397;28;20025;-89
2022/08/20 06:36:24;;;;;;;1.43;1.30;;;;;;;-145.06;100.00;60892.56;4829825;28;20261;-88
2022/08/20 06:39:03;;;;;;;1.45;1.10;;;;;;;-145.06;100.00;60892.56;4833507;28;20304;-87
2022/08/20 06:41:43;;;;;;;1.58;1.40;;;;;;;-145.06;100.00;60892.56;4825810;28;20481;-87
2022/08/20 06:44:23;;;;;;;;;;;;;;;-145.06;100.00;60892.56;4834170;28;20018;-87
2022/08/20 06:47:03;;;;;;;1.77;1.52;;;;;;;-145.06;100.00;60892.56;4834706;28;19913;-87
2022/08/20 06:49:42;;;;;;;1.23;1.13;;;;;;;-145.06;100.00;60892.56;4825913;28;20029;-88
2022/08/20 06:52:22;;;;;;;1.52;1.42;;;;;;;-145.06;100.00;60892.56;4827627;28;20058;-86
2022/08/20 06:55:01;;;;;;;2.40;1.63;;;;;;;-145.06;100.00;60892.56;4827959;28;20030;-89
2022/08/20 06:57:42;;;;;;;2.70;1.80;;;;;;;-145.06;100.00;60892.56;4825807;28;20034;-88
2022/08/20 07:00:22;;;;;;;2.30;2.08;;;;;;;-145.06;100.00;60892.56;4834761;28;22255;-88
2022/08/20 07:03:02;;;;;;;2.55;2.35;;;;;;;-145.06;100.00;60892.56;4835681;28;20033;-87
2022/08/20 07:05:42;;;;;;;3.10;2.20;;;;;;;-145.06;100.00;60892.56;4827603;28;20069;-91
2022/08/20 07:08:21;;;;;;;2.50;2.10;;;;;;;-145.06;100.00;60892.56;4832773;28;20112;-87
2022/08/20 07:11:01;;;;;;;2.13;1.92;;;;;;;-145.06;100.00;60892.56;4827962;28;20117;-88
2022/08/20 07:13:40;;;;;;;2.20;1.98;;;;;;;-145.06;100.00;60892.56;4826910;28;20033;-86
2022/08/20 07:16:19;;;;;;;1.73;1.60;;;;;;;-145.06;100.00;60892.56;4833509;28;20030;-86
2022/08/20 07:18:58;;;;;;;2.67;2.00;;;;;;;-145.06;100.00;60892.56;4835486;28;20109;-87
2022/08/20 07:21:37;;;;;;;2.30;2.00;;;;;;;-145.06;100.00;60892.56;4835230;28;20273;-87
2022/08/20 07:24:16;;;;;;;2.45;2.20;;;;;;;-145.06;100.00;60892.56;4860255;28;20038;-86
2022/08/20 07:26:55;;;;;;;2.50;2.10;;;;;;;-145.06;100.00;60892.56;4833903;28;20377;-86
2022/08/20 07:32:35;;;;;;;2.17;1.75;;;;;;;-145.06;100.00;60892.56;4831839;28;20030;-90
2022/08/20 07:35:16;;;;;;;2.65;1.88;;;;;;;-145.06;100.00;60892.56;4834312;28;20030;-88
2022/08/20 07:37:55;;;;;;;2.70;1.73;;;;;;;-145.06;100.00;60892.56;4836285;28;20034;-90
2022/08/20 07:40:34;;;;;;;3.17;1.70;;;;;;;-145.06;100.00;60892.56;4830135;28;20021;-88
2022/08/20 07:43:15;;;;;;;1.70;1.60;;;;;;;-145.06;100.00;60892.56;4837295;28;20034;-88
2022/08/20 07:45:59;;;;;;;2.67;1.80;;;;;;;-145.06;100.00;60892.56;4839261;28;20025;-89
2022/08/20 07:48:45;;;;;;;1.95;1.75;;;;;;;-145.06;100.00;60892.56;4834127;28;20397;-90
2022/08/20 07:51:24;;;;;;;3.03;2.03;;;;;;;-145.06;100.00;60892.56;4833857;28;20380;-89
2022/08/20 07:54:04;;;;;;;1.70;1.42;;;;;;;-145.06;100.00;60892.56;4836387;28;20129;-87
2022/08/20 07:56:44;;;;;;;2.30;1.70;;;;;;;-145.06;100.00;60892.56;4831772;28;20034;-88
2022/08/20 07:59:23;;;;;;;2.35;2.15;;;;;;;-145.06;100.00;60892.56;4835464;28;20487;-90
2022/08/20 08:02:03;;;;;;;3.42;2.58;;;;;;;-145.06;100.00;60892.56;4836575;28;20029;-89
2022/08/20 08:04:43;;;;;;;4.13;2.30;;;;;;;-145.06;100.00;60892.56;4838699;28;20033;-88
2022/08/20 08:07:25;;;;;;;3.45;2.38;;;;;;;-145.06;100.00;60892.56;4834877;28;20046;-87
2022/08/20 08:10:06;;;;;;;3.15;2.20;;;;;;;-145.06;100.00;60892.56;4835796;28;20693;-86
2022/08/20 08:12:49;;;;;;;2.38;1.98;;;;;;;-145.06;100.00;60892.56;4835853;28;20029;-87
2022/08/20 08:15:32;;;;;;;3.78;2.88;;;;;;;-145.06;100.00;60892.56;4849743;28;20055;-87
2022/08/20 08:18:20;;;;;;;3.65;1.85;;;;;;;-145.06;100.00;60892.56;4847848;28;20038;-87
2022/08/20 08:20:59;;;;;;;2.78;2.20;;;;;;;-145.06;100.00;60892.56;4831171;28;20025;-87
2022/08/20 08:23:43;;;;;;;2.63;1.85;;;;;;;-145.06;100.00;60892.56;4834722;28;20033;-88
2022/08/20 08:26:22;;;;;;;1.85;1.70;;;;;;;-145.06;100.00;60892.56;4860523;28;20389;-87
2022/08/20 08:29:03;;;;;;;1.98;1.67;;;;;;;-145.06;100.00;60892.56;4840613;28;20484;-88
2022/08/20 08:31:42;;;;;;;3.63;2.22;;;;;;;-145.06;100.00;60892.56;4838261;28;20030;-88
2022/08/20 08:34:24;;;;;;;2.73;2.00;;;;;;;-145.06;100.00;60892.56;4835226;28;20657;-89
2022/08/20 08:37:04;;;;;;;2.55;1.52;;;;;;;-145.06;100.00;60892.56;4834197;28;20269;-87
2022/08/20 08:39:43;;;;;;;1.83;1.65;;;;;;;-145.06;100.00;60892.56;4834650;28;20480;-87
2022/08/20 08:42:32;;;;;;;2.72;2.08;;;;;;;-145.06;100.00;60892.56;4834491;28;20057;-89
2022/08/20 08:45:15;;;;;;;2.42;1.70;;;;;;;-145.06;100.00;60892.56;4834322;28;20042;-88
2022/08/20 08:47:56;;;;;;;3.42;2.00;;;;;;;-145.06;100.00;60892.56;4837524;28;21032;-89
2022/08/20 08:50:38;;;;;;;1.58;1.33;;;;;;;-145.06;100.00;60892.56;4834700;28;20045;-89
2022/08/20 08:53:41;;;;;;;2.65;1.75;;;;;;;-145.06;100.00;60892.56;4831888;28;20034;-87
2022/08/20 08:56:27;;;;;;;3.35;1.90;;;;;;;-145.06;100.00;60892.56;4826175;28;20042;-88
2022/08/20 08:59:07;;;;;;;1.48;1.38;;;;;;;-145.06;100.00;60892.56;4830450;28;20033;-88
2022/08/20 09:01:51;;;;;;;1.90;1.40;;;;;;;-145.06;100.00;60892.56;4831224;28;20033;-87
2022/08/20 09:04:36;;;;;;;1.98;1.20;;;;;;;-145.06;100.00;60892.56;4830709;28;20030;-88
2022/08/20 09:07:16;;;;;;;1.60;1.17;;;;;;;-145.06;100.00;60892.56;4855327;28;20389;-88
2022/08/20 09:09:56;;;;;;;1.35;1.25;;;;;;;-145.06;100.00;60892.56;4826854;28;20053;-88
2022/08/20 09:12:35;;;;;;;2.10;1.23;;;;;;;-145.06;100.00;60892.56;4841320;28;20366;-87
2022/08/20 09:15:15;;;;;;;3.20;1.60;;;;;;;-145.06;100.00;60892.56;4830853;28;20030;-88
2022/08/20 09:17:54;;;;;;;2.05;1.13;;;;;;;-145.06;100.00;60892.56;4828197;28;20034;-87
2022/08/20 09:20:33;;;;;;;1.73;1.10;;;;;;;-145.06;100.00;60892.56;4823036;28;20045;-88
2022/08/20 09:23:12;;;;;;;2.47;1.00;;;;;;;-145.06;100.00;60892.56;4827653;28;20359;-86
2022/08/20 09:25:51;;;;;;;1.13;0.80;;;;;;;-145.06;100.00;60892.56;4828558;28;20038;-87
2022/08/20 09:28:31;;;;;;;1.77;0.90;;;;;;;-145.06;100.00;60892.56;4830951;28;20137;-88
2022/08/20 09:31:10;;;;;;;1.25;1.10;;;;;;;-145.06;100.00;60892.56;4822613;28;20037;-87
2022/08/20 09:33:50;;;;;;;1.27;1.00;;;;;;;-145.06;100.00;60892.56;4827464;28;20034;-88
2022/08/20 09:36:29;;;;;;;0.93;0.63;;;;;;;-145.06;100.00;60892.56;4828897;28;20034;-86
2022/08/20 09:39:09;;;;;;;1.48;1.20;;;;;;;-145.06;100.00;60892.56;4822639;28;20029;-88
2022/08/20 09:41:48;;;;;;;2.45;1.05;;;;;;;-145.06;100.00;60892.56;4827573;28;20038;-87
2022/08/20 09:44:27;;;;;;;1.67;1.13;;;;;;;-145.06;100.00;60892.56;4830200;28;20034;-87
2022/08/20 09:47:06;;;;;;;1.67;1.13;;;;;;;-145.06;100.00;60892.56;4824958;28;20113;-87
2022/08/20 09:49:46;;;;;;;2.28;1.20;;;;;;;-145.06;100.00;60892.56;4827765;28;20030;-87
2022/08/20 09:52:35;;;;;;;1.40;1.00;;;;;;;-145.06;100.00;60892.56;4829468;28;20069;-86
2022/08/20 09:55:27;;;;;;;2.17;1.05;;;;;;;-145.06;100.00;60892.56;4850382;28;20287;-87
2022/08/20 09:58:31;;;;;;;2.17;1.30;;;;;;;-145.06;100.00;60892.56;4829666;28;20038;-87
2022/08/20 10:01:14;;;;;;;1.88;1.42;;;;;;;-145.06;100.00;60892.56;4830241;28;20034;-87
2022/08/20 10:03:53;;;;;;;2.30;1.10;;;;;;;-145.06;100.00;60892.56;4827111;28;20152;-87
2022/08/20 10:06:39;;;;;;;2.13;1.30;;;;;;;-145.06;100.00;60892.56;4827149;28;20311;-88
2022/08/20 10:09:18;;;;;;;1.67;1.00;;;;;;;-145.06;100.00;60892.56;4827752;28;20038;-86
2022/08/20 10:11:57;;;;;;;1.50;1.15;;;;;;;-145.06;100.00;60892.56;4829187;28;20033;-88
2022/08/20 10:14:36;;;;;;;1.70;1.25;;;;;;;-145.06;100.00;60892.56;4827329;28;20033;-88
2022/08/20 10:17:15;;;;;;;3.08;1.15;;;;;;;-145.06;100.00;60892.56;4829231;28;20495;-87
2022/08/20 10:19:54;;;;;;;2.20;1.20;;;;;;;-145.06;100.00;60892.56;4827323;28;20120;-87
2022/08/20 10:22:33;;;;;;;1.53;0.97;;;;;;;-145.06;100.00;60892.56;4829195;28;20042;-89
2022/08/20 10:25:12;;;;;;;1.17;0.88;;;;;;;-145.06;100.00;60892.56;4831311;28;20364;-86
2022/08/20 10:27:51;;;;;;;2.47;1.10;;;;;;;-145.06;100.00;60892.56;4825791;28;21442;-88
2022/08/20 10:30:30;;;;;;;1.92;1.33;;;;;;;-145.06;100.00;60892.56;4825330;28;20033;-89
2022/08/20 10:33:09;;;;;;;2.65;1.58;;;;;;;-145.06;100.00;60892.56;4830127;28;20484;-88
2022/08/20 10:35:49;;;;;;;3.10;2.13;;;;;;;-145.06;100.00;60892.56;4827787;28;20049;-88
2022/08/20 10:38:28;;;;;;;2.55;1.50;;;;;;;-145.06;100.00;60892.56;4830613;28;20046;-88
2022/08/20 10:41:07;;;;;;;3.33;1.42;;;;;;;-145.06;100.00;60892.56;4830468;28;20145;-89
2022/08/20 10:43:46;;;;;;;1.25;1.15;;;;;;;-145.06;100.00;60892.56;4829349;28;20041;-87
2022/08/20 10:46:26;;;;;;;1.60;1.20;;;;;;;-145.06;100.00;60892.56;4825937;28;20034;-87
2022/08/20 10:49:05;;;;;;;2.53;1.20;;;;;;;-145.06;100.00;60892.56;4830575;28;20042;-88
2022/08/20 10:51:44;;;;;;;3.22;1.83;;;;;;;-145.06;100.00;60892.56;4826459;28;20441;-89
2022/08/20 10:54:22;;;;;;;2.38;1.23;;;;;;;-145.06;100.00;60892.56;4830015;28;20121;-88
2022/08/20 10:57:03;;;;;;;2.95;1.30;;;;;;;-145.06;100.00;60892.56;4825464;28;20065;-87
2022/08/20 10:59:44;;;;;;;2.45;1.25;;;;;;;-145.06;100.00;60892.56;4825983;28;20046;-89
2022/08/20 11:02:24;;;;;;;2.85;1.50;;;;;;;-145.06;100.00;60892.56;4827677;28;20060;-88
2022/08/20 11:05:04;;;;;;;1.52;1.33;;;;;;;-145.06;100.00;60892.56;4829720;28;20138;-88
2022/08/20 11:07:44;;;;;;;1.75;1.20;;;;;;;-145.06;100.00;60892.56;4826466;28;20705;-88
2022/08/20 11:10:26;;;;;;;1.75;1.30;;;;;;;-145.06;100.00;60892.56;4825288;28;20030;-87
2022/08/20 11:13:06;;;;;;;1.60;1.13;;;;;;;-145.06;100.00;60892.56;4824733;28;20058;-90
2022/08/20 11:15:46;;;;;;;2.67;1.30;;;;;;;-145.06;100.00;60892.56;4831237;28;20113;-88
2022/08/20 11:18:25;;;;;;;4.72;1.45;;;;;;;-145.06;100.00;60892.56;4829181;28;20045;-89
2022/08/20 11:21:04;;;;;;;;;;;;;;;-145.06;100.00;60892.56;4833932;28;20372;-89
2022/08/20 11:23:43;;;;;;;5.33;1.57;;;;;;;-145.06;100.00;60892.56;4834691;28;19918;-90
2022/08/20 11:26:24;;;;;;;2.33;1.38;;;;;;;-145.06;100.00;60892.56;4835796;28;20022;-89
2022/08/20 11:29:03;;;;;;;2.15;1.25;;;;;;;-145.06;100.00;60892.56;4839521;28;20050;-88
2022/08/20 11:31:42;;;;;;;2.05;1.65;;;;;;;-145.06;100.00;60892.56;4848224;28;20022;-90
2022/08/20 11:34:21;;;;;;;4.03;1.50;;;;;;;-145.06;100.00;60892.56;4837060;28;20038;-89
2022/08/20 11:37:00;;;;;;;3.72;1.83;;;;;;;-145.06;100.00;60892.56;4824702;28;20817;-90
2022/08/20 11:39:39;;;;;;;3.45;1.90;;;;;;;-145.06;100.00;60892.56;4822190;28;20050;-88
2022/08/20 11:42:18;;;;;;;3.22;1.88;;;;;;;-145.06;100.00;60892.56;4824896;28;20037;-88
2022/08/20 11:44:58;;;;;;;;;;;;;;;-145.06;100.00;60892.56;4826522;28;20033;-87
2022/08/20 11:47:37;;;;;;;3.50;1.73;;;;;;;-145.06;100.00;60892.56;4825012;28;19917;-88
2022/08/20 11:50:19;;;;;;;2.92;1.65;;;;;;;-145.06;100.00;60892.56;4829159;28;20480;-88
2022/08/20 11:53:05;;;;;;;2.85;1.60;;;;;;;-145.06;100.00;60892.56;4824661;28;20037;-89
2022/08/20 11:55:46;;;;;;;5.85;2.55;;;;;;;-145.06;100.00;60892.56;4827018;28;20038;-89
2022/08/20 11:58:27;;;;;;;2.97;1.80;;;;;;;-145.06;100.00;60892.56;4825404;28;20046;-88
2022/08/20 12:01:07;;;;;;;2.28;1.55;;;;;;;-145.06;100.00;60892.56;4826144;28;20033;-89
2022/08/20 12:03:46;;;;;;;4.00;1.92;;;;;;;-145.06;100.00;60892.56;4830624;28;20747;-89
2022/08/20 12:06:24;;;;;;;3.35;1.92;;;;;;;-145.06;100.00;60892.56;4833248;28;20113;-90
2022/08/20 12:09:03;;;;;;;2.42;1.80;;;;;;;-145.06;100.00;60892.56;4833459;28;20021;-89
2022/08/20 12:11:43;;;;;;;1.50;1.40;;;;;;;-145.06;100.00;60892.56;4828992;28;20041;-89
2022/08/20 12:14:22;;;;;;;2.88;1.77;;;;;;;-145.06;100.00;60892.56;4831490;28;20260;-89
2022/08/20 12:17:08;;;;;;;2.03;1.30;;;;;;;-145.06;100.00;60892.56;4830375;28;20037;-88
2022/08/20 12:19:47;;;;;;;1.75;1.17;;;;;;;-145.06;100.00;60892.56;4831360;28;20042;-88